Time;durP1;ratioP1;P1;durP2;ratioP2;P2;SDS_P1;SDS_P2;PMS_P1;PMS_P2;Temp;Humidity;BMP_temperature;BMP_pressure;BME280_temperature;BME280_humidity;BME280_pressure;Samples;Min_cycle;Max_cycle;Signal;HPM_P1;HPM_P2
2023/01/10 00:00:33;;;;;;;6.40;3.58;;;;;;;3.54;76.37;92237.03;2041157;70;20166;-74
2023/01/10 00:03:00;;;;;;;6.57;3.80;;;;;;;3.56;76.35;92230.88;2040984;70;20167;-74
2023/01/10 00:05:26;;;;;;;5.70;3.78;;;;;;;3.49;76.49;92238.03;2041627;70;20182;-75
2023/01/10 00:07:51;;;;;;;7.47;4.18;;;;;;;3.51;76.88;92240.22;2041595;70;20686;-76
2023/01/10 00:10:17;;;;;;;5.03;3.58;;;;;;;3.49;76.45;92251.22;2041814;70;20155;-77
2023/01/10 00:15:33;;;;;;;4.97;3.35;;;;;;;3.22;78.81;92248.38;2041669;70;20144;-75
2023/01/10 00:17:59;;;;;;;7.15;3.55;;;;;;;3.49;77.00;92260.31;2040863;70;20143;-72
2023/01/10 00:20:25;;;;;;;7.50;3.92;;;;;;;3.49;77.40;92251.94;2040771;70;20170;-75
2023/01/10 00:22:50;;;;;;;5.00;3.42;;;;;;;3.43;76.69;92243.09;2041490;70;20152;-76
2023/01/10 00:25:20;;;;;;;5.63;3.47;;;;;;;3.52;76.57;92261.19;2040972;70;20151;-78
2023/01/10 00:27:56;;;;;;;5.50;3.60;;;;;;;3.49;76.85;92254.72;2041342;70;20182;-73
2023/01/10 00:30:22;;;;;;;6.38;3.60;;;;;;;3.49;76.68;92260.31;2041420;70;20147;-74
2023/01/10 00:32:48;;;;;;;4.70;3.53;;;;;;;3.49;76.78;92256.78;2040612;70;20147;-76
2023/01/10 00:35:13;;;;;;;8.60;4.13;;;;;;;3.34;77.38;92260.47;2041280;70;20163;-76
2023/01/10 00:37:39;;;;;;;6.75;4.10;;;;;;;3.45;77.06;92259.97;2041381;70;20155;-71
2023/01/10 00:40:09;;;;;;;6.80;3.75;;;;;;;3.59;76.33;92256.84;2041314;70;20257;-70
2023/01/10 00:45:21;;;;;;;7.97;4.18;;;;;;;3.30;77.72;92282.44;2041271;70;20258;-76
2023/01/10 00:47:47;;;;;;;7.57;3.80;;;;;;;2.83;80.05;92280.69;2041110;70;20152;-76
2023/01/10 00:50:13;;;;;;;5.30;3.50;;;;;;;3.16;79.42;92292.38;2041346;70;20728;-73
2023/01/10 00:52:39;;;;;;;6.40;3.55;;;;;;;3.37;77.76;92289.19;2041364;70;20164;-71
2023/01/10 00:55:05;;;;;;;5.47;3.60;;;;;;;3.38;77.85;92296.22;2041259;70;20551;-75
2023/01/10 00:57:31;;;;;;;7.03;3.63;;;;;;;3.39;77.78;92300.47;2040879;70;20208;-76
2023/01/10 00:59:57;;;;;;;5.55;3.55;;;;;;;3.42;77.60;92302.13;2040957;70;20535;-76
2023/01/10 01:02:23;;;;;;;5.07;3.45;;;;;;;3.35;77.13;92302.97;2041179;70;20159;-77
2023/01/10 01:04:48;;;;;;;7.07;4.00;;;;;;;3.38;77.44;92310.88;2041594;70;20167;-76
2023/01/10 01:07:14;;;;;;;9.25;4.13;;;;;;;3.42;77.29;92299.34;2042804;70;20152;-78
2023/01/10 01:10:25;;;;;;;7.88;3.70;;;;;;;3.46;76.88;92299.66;2041704;70;20135;-75
2023/01/10 01:12:25;;;;;;;8.52;4.18;;;;;;;3.47;76.89;92306.69;2041621;70;20174;-74
2023/01/10 01:14:51;;;;;;;8.25;4.70;;;;;;;3.39;76.99;92304.03;2041434;70;20159;-71
2023/01/10 01:17:17;;;;;;;9.05;4.63;;;;;;;3.45;77.04;92296.16;2041402;70;20246;-77
2023/01/10 01:19:43;;;;;;;7.13;4.65;;;;;;;3.45;76.27;92295.41;2041036;70;20159;-76
2023/01/10 01:22:08;;;;;;;9.75;4.50;;;;;;;3.39;76.85;92295.69;2041438;70;20227;-77
2023/01/10 01:24:34;;;;;;;7.07;3.97;;;;;;;3.49;76.83;92307.63;2041063;70;20515;-73
2023/01/10 01:27:00;;;;;;;4.57;3.33;;;;;;;3.43;77.29;92315.44;2040950;70;20603;-70
2023/01/10 01:29:25;;;;;;;5.85;2.90;;;;;;;3.44;77.00;92314.16;2041433;70;20186;-74
2023/01/10 01:31:51;;;;;;;4.97;3.15;;;;;;;3.37;77.28;92325.38;2041496;70;20155;-72
2023/01/10 01:34:17;;;;;;;3.33;1.77;;;;;;;3.45;76.00;92321.19;2040189;70;20148;-71
2023/01/10 01:36:42;;;;;;;2.85;1.40;;;;;;;3.46;76.30;92327.50;2038133;70;20215;-76
2023/01/10 01:39:08;;;;;;;1.42;1.10;;;;;;;3.38;76.99;92335.91;2038339;70;20163;-72
2023/01/10 01:44:19;;;;;;;6.03;3.55;;;;;;;2.91;80.24;92348.81;2037570;70;20152;-74
2023/01/10 01:47:25;;;;;;;5.55;3.33;;;;;;;3.00;79.81;92362.09;2038263;70;20178;-76
2023/01/10 01:49:52;;;;;;;4.78;3.20;;;;;;;3.15;78.78;92377.16;2033671;70;20140;-71
2023/01/10 01:52:25;;;;;;;6.78;3.35;;;;;;;3.20;79.09;92370.59;2031193;70;20143;-71
2023/01/10 01:54:54;;;;;;;4.65;2.75;;;;;;;3.21;78.72;92378.41;2033871;70;20152;-75
2023/01/10 01:57:24;;;;;;;7.65;4.15;;;;;;;3.25;78.89;92375.19;2033763;70;20187;-75
2023/01/10 01:59:53;;;;;;;6.35;3.65;;;;;;;3.28;78.35;92376.84;2033853;70;20159;-78
2023/01/10 02:02:22;;;;;;;5.05;3.30;;;;;;;3.34;78.27;92382.91;2033567;70;20240;-78
2023/01/10 02:04:53;;;;;;;5.22;2.67;;;;;;;3.29;78.07;92384.59;2033321;70;20248;-71
2023/01/10 02:07:21;;;;;;;4.32;2.80;;;;;;;3.25;78.32;92386.31;2033831;70;20324;-79
2023/01/10 02:10:00;;;;;;;5.93;2.70;;;;;;;3.37;77.90;92390.09;2033897;70;20238;-78
2023/01/10 02:12:29;;;;;;;3.22;2.40;;;;;;;3.37;77.69;92394.94;2033662;70;20199;-77
2023/01/10 02:14:55;;;;;;;2.90;2.10;;;;;;;3.47;77.55;92392.97;2030880;70;20204;-76
2023/01/10 02:17:20;;;;;;;1.77;1.50;;;;;;;3.46;77.60;92388.72;2030808;70;20187;-73
2023/01/10 02:20:00;;;;;;;6.15;2.67;;;;;;;3.31;78.12;92392.41;2034384;70;20247;-73
2023/01/10 02:22:56;;;;;;;11.63;4.00;;;;;;;3.29;78.28;92395.72;2038210;70;20148;-69
2023/01/10 02:25:49;;;;;;;9.57;3.55;;;;;;;3.41;77.75;92406.41;2037995;70;20172;-74
2023/01/10 02:28:52;;;;;;;15.07;4.28;;;;;;;3.43;77.99;92406.56;2038084;70;20151;-72
2023/01/10 02:31:21;;;;;;;7.65;3.97;;;;;;;3.47;77.54;92420.81;2037462;70;20173;-76
2023/01/10 02:33:56;;;;;;;7.13;3.30;;;;;;;3.47;77.17;92418.75;2037784;70;20238;-74
2023/01/10 02:36:34;;;;;;;5.07;2.92;;;;;;;3.01;79.38;92415.66;2037901;70;20275;-77
2023/01/10 02:39:05;;;;;;;7.57;3.03;;;;;;;3.29;78.70;92412.44;2037790;70;20214;-73
2023/01/10 02:41:44;;;;;;;5.28;3.00;;;;;;;3.24;78.69;92421.75;2037951;70;20150;-73
2023/01/10 02:44:14;;;;;;;5.18;2.97;;;;;;;3.35;78.58;92420.56;2038202;70;20143;-74
2023/01/10 02:46:40;;;;;;;7.57;3.20;;;;;;;3.44;77.73;92425.47;2037772;70;20616;-73
2023/01/10 02:49:06;;;;;;;4.15;2.80;;;;;;;3.47;77.28;92427.09;2037947;70;20262;-76
2023/01/10 02:51:34;;;;;;;4.95;2.60;;;;;;;3.40;77.47;92427.94;2038219;70;20258;-74
2023/01/10 02:54:12;;;;;;;3.63;2.72;;;;;;;3.34;78.01;92424.63;2038293;70;20231;-70
2023/01/10 02:57:09;;;;;;;2.70;2.17;;;;;;;3.39;77.72;92426.47;2039268;70;20144;-77
2023/01/10 02:59:52;;;;;;;4.05;2.00;;;;;;;3.51;77.30;92435.06;2037870;70;20683;-74
2023/01/10 03:02:52;;;;;;;3.22;1.70;;;;;;;3.51;76.89;92429.47;2037782;70;20178;-71
2023/01/10 03:05:25;;;;;;;3.72;1.70;;;;;;;3.48;77.23;92428.59;2037914;70;20163;-73
2023/01/10 03:08:25;;;;;;;3.33;1.70;;;;;;;3.47;77.68;92420.81;2037905;70;20195;-79
2023/01/10 03:10:55;;;;;;;1.95;1.60;;;;;;;3.38;77.41;92424.22;2037786;70;20159;-75
2023/01/10 03:13:26;;;;;;;13.75;3.72;;;;;;;3.23;77.68;92423.06;2037866;70;20159;-79
2023/01/10 03:15:54;;;;;;;8.77;2.78;;;;;;;3.31;77.75;92428.56;2038205;70;20241;-76
2023/01/10 03:18:26;;;;;;;6.10;2.70;;;;;;;3.40;77.04;92429.97;2038017;70;20288;-70
2023/01/10 03:20:53;;;;;;;5.40;2.42;;;;;;;3.35;77.30;92442.81;2037918;70;20140;-74
2023/01/10 03:23:21;;;;;;;5.25;2.35;;;;;;;3.29;78.11;92447.88;2038183;70;20159;-71
2023/01/10 03:25:51;;;;;;;5.72;2.33;;;;;;;3.36;77.62;92463.03;2037980;70;20140;-76
2023/01/10 03:28:27;;;;;;;7.13;4.75;;;;;;;3.19;78.60;92461.66;2037905;70;20734;-79
2023/01/10 03:31:12;;;;;;;2.70;2.15;;;;;;;2.95;79.01;92462.44;2038046;70;20196;-71
2023/01/10 03:33:39;;;;;;;4.20;1.95;;;;;;;3.13;78.82;92468.78;2037838;70;20146;-76
2023/01/10 03:36:04;;;;;;;2.55;2.08;;;;;;;3.14;78.71;92473.03;2037725;70;20140;-78
2023/01/10 03:38:53;;;;;;;3.60;1.50;;;;;;;3.28;78.76;92477.00;2037822;70;20150;-79
2023/01/10 03:41:40;;;;;;;2.08;1.60;;;;;;;3.36;77.93;92485.28;2037289;70;20235;-76
2023/01/10 03:47:28;;;;;;;1.70;1.60;;;;;;;3.39;77.41;92487.69;2037834;70;20136;-77
2023/01/10 03:50:09;;;;;;;3.08;1.95;;;;;;;3.36;77.69;92491.59;2037896;70;20536;-73
2023/01/10 03:52:36;;;;;;;1.98;1.65;;;;;;;3.42;77.25;92492.09;2037953;70;20159;-79
2023/01/10 03:55:04;;;;;;;2.03;1.83;;;;;;;3.35;78.19;92506.81;2037934;70;20152;-81
2023/01/10 03:57:30;;;;;;;1.75;1.45;;;;;;;3.38;78.03;92502.16;2037319;70;20223;-80
2023/01/10 03:59:57;;;;;;;2.13;1.45;;;;;;;3.45;77.13;92504.13;2037778;70;20186;-80
2023/01/10 04:02:29;;;;;;;2.40;1.58;;;;;;;3.16;78.95;92512.91;2037580;70;20327;-76
2023/01/10 04:04:55;;;;;;;2.47;1.63;;;;;;;3.34;78.54;92515.72;2037963;70;20216;-76
2023/01/10 04:07:21;;;;;;;4.07;1.83;;;;;;;3.29;78.04;92529.28;2037885;70;20238;-74
2023/01/10 04:09:46;;;;;;;2.42;1.65;;;;;;;2.98;79.07;92514.13;2037138;70;20608;-72
2023/01/10 04:12:12;;;;;;;4.78;2.30;;;;;;;3.21;78.90;92533.44;2037843;70;20162;-76
2023/01/10 04:14:38;;;;;;;5.82;2.10;;;;;;;3.31;78.64;92534.31;2038046;70;20151;-71
2023/01/10 04:17:03;;;;;;;3.83;2.15;;;;;;;3.18;79.51;92540.88;2037126;70;20143;-80
2023/01/10 04:19:29;;;;;;;2.85;1.80;;;;;;;3.26;79.21;92554.75;2037995;70;20155;-77
2023/01/10 04:21:55;;;;;;;2.30;1.70;;;;;;;3.36;78.78;92552.06;2037932;70;20510;-74
2023/01/10 04:24:21;;;;;;;1.77;1.50;;;;;;;3.42;78.54;92558.13;2037228;70;20186;-76
2023/01/10 04:26:46;;;;;;;1.40;1.30;;;;;;;3.36;78.11;92557.63;2037935;70;20246;-70
2023/01/10 04:29:12;;;;;;;1.63;1.42;;;;;;;3.11;78.96;92571.50;2037818;70;20660;-70
2023/01/10 04:31:38;;;;;;;2.08;1.42;;;;;;;3.14;79.63;92573.19;2037598;70;20148;-74
2023/01/10 04:34:05;;;;;;;2.50;1.80;;;;;;;3.14;78.86;92576.69;2037404;70;20504;-76
2023/01/10 04:36:31;;;;;;;5.70;2.47;;;;;;;3.22;78.96;92577.38;2037242;70;20151;-79
2023/01/10 04:38:58;;;;;;;3.53;2.70;;;;;;;3.31;78.58;92587.91;2038041;70;20147;-73
2023/01/10 04:41:24;;;;;;;3.45;2.53;;;;;;;3.36;78.06;92582.69;2038505;70;20152;-71
2023/01/10 04:43:49;;;;;;;6.18;4.63;;;;;;;3.34;78.11;92572.09;2038740;70;20144;-69
2023/01/10 04:46:16;;;;;;;5.68;4.15;;;;;;;3.36;78.03;92569.50;2038802;70;20664;-72
2023/01/10 04:48:41;;;;;;;5.75;4.40;;;;;;;3.31;77.87;92560.06;2038524;70;20633;-74
2023/01/10 04:51:08;;;;;;;2.67;2.40;;;;;;;3.36;77.91;92568.78;2038298;70;20263;-79
2023/01/10 04:53:33;;;;;;;3.08;2.30;;;;;;;3.34;77.92;92568.59;2038549;70;20175;-75
2023/01/10 04:56:03;;;;;;;5.65;3.10;;;;;;;3.11;79.24;92574.28;2038514;70;20180;-79
2023/01/10 04:58:33;;;;;;;2.97;2.15;;;;;;;3.30;78.58;92571.78;2038474;70;20231;-71
2023/01/10 05:00:58;;;;;;;2.58;2.20;;;;;;;3.27;78.16;92586.81;2037892;70;20150;-76
2023/01/10 05:03:24;;;;;;;3.95;2.55;;;;;;;3.29;77.73;92589.75;2037853;70;20140;-74
2023/01/10 05:05:50;;;;;;;3.50;2.83;;;;;;;2.77;79.93;92595.06;2038202;70;20159;-77
2023/01/10 05:08:15;;;;;;;3.78;2.78;;;;;;;2.95;80.25;92593.13;2037945;70;20188;-77
2023/01/10 05:10:41;;;;;;;4.28;3.35;;;;;;;3.09;79.95;92605.47;2038613;70;20193;-77
2023/01/10 05:13:07;;;;;;;11.73;4.30;;;;;;;2.59;81.25;92610.88;2038423;70;20239;-75
2023/01/10 05:15:32;;;;;;;8.38;2.92;;;;;;;2.56;83.04;92609.22;2038472;70;20230;-72
2023/01/10 05:17:59;;;;;;;6.15;2.60;;;;;;;2.99;80.99;92621.28;2038365;70;20187;-77
2023/01/10 05:20:25;;;;;;;6.88;3.22;;;;;;;3.00;80.52;92628.31;2038483;70;20186;-76
2023/01/10 05:22:51;;;;;;;6.78;2.90;;;;;;;3.15;79.63;92624.72;2038443;70;20192;-75
2023/01/10 05:25:17;;;;;;;6.85;3.30;;;;;;;3.23;79.44;92619.84;2037899;70;20223;-79
2023/01/10 05:27:42;;;;;;;7.18;3.00;;;;;;;3.30;78.95;92638.56;2038419;70;20627;-79
2023/01/10 05:30:12;;;;;;;7.07;3.78;;;;;;;3.26;78.98;92647.28;2038031;70;20144;-77
2023/01/10 05:32:38;;;;;;;7.20;3.15;;;;;;;3.32;78.73;92649.84;2038383;70;20144;-75
2023/01/10 05:35:04;;;;;;;3.75;2.90;;;;;;;3.28;79.20;92649.50;2038360;70;20595;-80
2023/01/10 05:37:30;;;;;;;4.07;2.40;;;;;;;3.26;79.29;92660.47;2038599;70;20151;-75
2023/01/10 05:39:55;;;;;;;3.03;2.10;;;;;;;3.25;79.18;92654.16;2038372;70;20170;-80
2023/01/10 05:42:21;;;;;;;2.97;2.45;;;;;;;3.37;78.78;92668.38;2038492;70;20172;-80
2023/01/10 05:44:47;;;;;;;4.28;2.60;;;;;;;3.36;78.39;92666.91;2037966;70;20148;-80
2023/01/10 05:47:12;;;;;;;3.15;2.42;;;;;;;3.42;78.33;92675.75;2038162;70;20600;-78
2023/01/10 05:49:38;;;;;;;3.53;1.75;;;;;;;3.38;78.45;92672.63;2038122;70;20269;-79
2023/01/10 05:52:04;;;;;;;5.40;3.47;;;;;;;3.21;79.70;92683.69;2038095;70;20194;-75
2023/01/10 05:54:29;;;;;;;4.55;2.90;;;;;;;3.27;79.63;92687.72;2038115;70;20144;-77
2023/01/10 05:56:56;;;;;;;5.90;2.75;;;;;;;3.31;79.74;92693.63;2037958;70;20140;-75
2023/01/10 05:59:21;;;;;;;4.78;1.90;;;;;;;3.37;79.11;92698.25;2038261;70;20606;-81
2023/01/10 06:01:47;;;;;;;4.80;2.75;;;;;;;3.18;79.90;92704.28;2037859;70;20162;-77
2023/01/10 06:04:13;;;;;;;4.93;2.88;;;;;;;3.33;79.25;92706.25;2038205;70;20144;-78
2023/01/10 06:06:39;;;;;;;3.88;2.00;;;;;;;3.27;79.54;92709.97;2038199;70;20159;-77
2023/01/10 06:09:05;;;;;;;5.30;2.20;;;;;;;3.39;78.81;92723.44;2038269;70;20147;-80
2023/01/10 06:11:30;;;;;;;6.47;3.35;;;;;;;3.01;80.45;92736.22;2038282;70;20246;-71
2023/01/10 06:13:56;;;;;;;9.18;4.22;;;;;;;3.04;81.39;92737.88;2038340;70;20705;-73
2023/01/10 06:16:22;;;;;;;6.43;4.55;;;;;;;3.30;79.92;92738.72;2038280;70;20156;-79
2023/01/10 06:18:49;;;;;;;8.75;4.35;;;;;;;3.25;79.45;92734.84;2038267;70;20234;-79
2023/01/10 06:21:15;;;;;;;8.25;4.10;;;;;;;3.25;79.57;92745.97;2038340;70;20238;-79
2023/01/10 06:23:40;;;;;;;5.32;3.95;;;;;;;3.33;79.51;92757.06;2038344;70;20698;-75
2023/01/10 06:26:06;;;;;;;5.57;3.50;;;;;;;3.27;78.82;92762.84;2038318;70;20247;-71
2023/01/10 06:28:32;;;;;;;6.35;3.90;;;;;;;2.94;80.27;92769.63;2038256;70;20164;-71
2023/01/10 06:30:57;;;;;;;11.88;5.80;;;;;;;3.00;81.42;92781.28;2038279;70;20612;-72
2023/01/10 06:33:23;;;;;;;27.98;13.77;;;;;;;3.23;80.19;92781.97;2038163;70;20156;-75
2023/01/10 06:35:49;;;;;;;17.88;9.15;;;;;;;3.34;79.41;92786.38;2039588;70;20144;-79
2023/01/10 06:38:15;;;;;;;13.13;7.03;;;;;;;3.36;79.21;92788.59;2039150;70;20163;-70
2023/01/10 06:40:40;;;;;;;9.65;5.90;;;;;;;3.47;78.81;92794.47;2038370;70;20148;-77
2023/01/10 06:43:06;;;;;;;13.63;7.07;;;;;;;3.39;79.20;92796.56;2037797;70;20174;-80
2023/01/10 06:45:32;;;;;;;11.07;6.38;;;;;;;3.36;78.72;92794.91;2038296;70;20144;-76
2023/01/10 06:47:57;;;;;;;7.82;4.05;;;;;;;3.40;78.55;92800.09;2038121;70;20144;-76
2023/01/10 06:50:23;;;;;;;7.30;3.78;;;;;;;3.48;78.54;92823.81;2038400;70;20596;-79
2023/01/10 06:53:00;;;;;;;7.25;4.10;;;;;;;3.11;79.65;92819.81;2038386;70;20231;-80
2023/01/10 06:55:26;;;;;;;6.38;3.72;;;;;;;3.44;78.75;92847.78;2038292;70;20217;-77
2023/01/10 06:58:00;;;;;;;7.75;4.10;;;;;;;3.48;78.59;92848.09;2038163;70;20152;-80
2023/01/10 07:00:27;;;;;;;7.15;4.30;;;;;;;3.52;78.52;92854.03;2038063;70;20151;-80
2023/01/10 07:02:57;;;;;;;8.02;4.38;;;;;;;3.44;79.10;92850.56;2037822;70;20160;-77
2023/01/10 07:05:23;;;;;;;7.50;4.30;;;;;;;3.51;78.68;92858.88;2038249;70;20160;-76
2023/01/10 07:07:49;;;;;;;6.80;4.20;;;;;;;3.48;78.44;92860.00;2038320;70;20170;-77
2023/01/10 07:10:15;;;;;;;7.75;4.95;;;;;;;3.32;79.05;92866.91;2038073;70;20575;-72
2023/01/10 07:12:41;;;;;;;8.30;4.35;;;;;;;3.24;79.29;92874.50;2038139;70;20148;-77
2023/01/10 07:15:07;;;;;;;5.60;4.00;;;;;;;2.73;81.51;92878.25;2038025;70;20220;-71
2023/01/10 07:17:32;;;;;;;11.38;3.97;;;;;;;3.10;80.79;92887.16;2038083;70;20154;-77
2023/01/10 07:19:58;;;;;;;9.60;6.25;;;;;;;3.35;79.83;92888.03;2038014;70;20608;-81
2023/01/10 07:22:24;;;;;;;7.97;4.28;;;;;;;3.41;79.21;92896.19;2038177;70;20175;-81
2023/01/10 07:24:49;;;;;;;7.80;4.70;;;;;;;3.26;79.90;92896.97;2038006;70;20143;-78
2023/01/10 07:27:15;;;;;;;7.72;4.78;;;;;;;3.48;78.80;92901.00;2037984;70;20158;-77
2023/01/10 07:29:41;;;;;;;8.20;5.30;;;;;;;3.52;78.37;92912.50;2038047;70;20200;-80
2023/01/10 07:32:07;;;;;;;7.18;4.90;;;;;;;3.49;79.08;92924.75;2038021;70;20155;-80
2023/01/10 07:34:32;;;;;;;6.45;4.28;;;;;;;3.48;78.86;92921.25;2038134;70;20270;-79
2023/01/10 07:36:58;;;;;;;5.97;3.92;;;;;;;3.58;78.52;92938.09;2038207;70;20158;-78
2023/01/10 07:39:23;;;;;;;5.38;3.97;;;;;;;3.55;78.66;92942.00;2038053;70;20158;-73
2023/01/10 07:41:50;;;;;;;8.65;4.25;;;;;;;3.47;78.86;92944.78;2038155;70;20184;-78
2023/01/10 07:44:15;;;;;;;7.88;3.55;;;;;;;3.35;79.65;92960.41;2037636;70;20240;-80
2023/01/10 07:46:41;;;;;;;8.95;4.10;;;;;;;3.42;79.05;92961.69;2037956;70;20235;-70
2023/01/10 07:49:07;;;;;;;7.70;4.10;;;;;;;3.46;78.58;92973.94;2037596;70;20140;-81
2023/01/10 07:51:33;;;;;;;9.93;4.70;;;;;;;3.48;78.69;92973.34;2038060;70;20523;-78
2023/01/10 07:53:58;;;;;;;12.57;6.32;;;;;;;3.19;79.96;92968.00;2038117;70;20584;-80
2023/01/10 07:56:24;;;;;;;10.23;6.03;;;;;;;3.14;80.62;92979.31;2038200;70;20220;-79
2023/01/10 07:58:50;;;;;;;15.32;7.93;;;;;;;3.34;79.94;92983.19;2038008;70;20644;-79
2023/01/10 08:01:16;;;;;;;14.00;6.93;;;;;;;3.04;80.82;92987.47;2037363;70;20160;-81
2023/01/10 08:03:41;;;;;;;10.23;5.60;;;;;;;3.06;80.23;92996.00;2038429;70;20179;-71
2023/01/10 08:06:09;;;;;;;13.23;6.05;;;;;;;3.12;80.87;92995.84;2038040;70;20247;-81
2023/01/10 08:08:35;;;;;;;14.95;5.43;;;;;;;3.20;80.16;92999.34;2038037;70;20152;-77
2023/01/10 08:11:01;;;;;;;7.75;4.25;;;;;;;3.24;80.32;92994.16;2038016;70;20138;-78
2023/01/10 08:13:28;;;;;;;7.20;4.00;;;;;;;3.46;79.06;93017.72;2037864;70;20164;-73
2023/01/10 08:15:53;;;;;;;12.40;6.25;;;;;;;3.50;78.90;93018.84;2038566;70;20611;-75
2023/01/10 08:18:21;;;;;;;6.45;3.00;;;;;;;3.33;79.14;93018.66;2038386;70;20155;-78
2023/01/10 08:20:51;;;;;;;4.35;2.50;;;;;;;3.28;79.67;93025.88;2038494;70;20167;-72
2023/01/10 08:23:17;;;;;;;6.68;3.30;;;;;;;3.43;79.08;93030.69;2038667;70;20195;-78
2023/01/10 08:25:43;;;;;;;5.90;3.55;;;;;;;3.48;78.68;93029.78;2041026;70;20144;-76
2023/01/10 08:28:09;;;;;;;7.05;3.45;;;;;;;3.61;78.38;93028.84;2039109;70;20159;-73
2023/01/10 08:30:35;;;;;;;6.15;3.28;;;;;;;3.62;78.31;93035.16;2038482;70;20143;-78
2023/01/10 08:33:02;;;;;;;4.78;2.90;;;;;;;3.57;78.09;93036.81;2037667;70;20247;-77
2023/01/10 08:35:28;;;;;;;4.00;2.50;;;;;;;3.59;78.40;93039.81;2038476;70;20186;-70
2023/01/10 08:37:58;;;;;;;3.15;2.22;;;;;;;3.80;77.60;93039.59;2037851;70;20238;-70
2023/01/10 08:40:24;;;;;;;4.05;2.60;;;;;;;3.83;77.37;93052.41;2038476;70;20255;-71
2023/01/10 08:42:59;;;;;;;4.30;2.83;;;;;;;3.74;77.72;93052.97;2038525;70;20151;-74
2023/01/10 08:45:25;;;;;;;3.92;2.63;;;;;;;3.87;77.62;93061.13;2038457;70;20151;-76
2023/01/10 08:47:51;;;;;;;3.65;2.05;;;;;;;3.95;77.04;93059.09;2038267;70;20188;-73
2023/01/10 08:50:17;;;;;;;3.45;2.20;;;;;;;3.92;77.40;93067.81;2038363;70;20143;-75
2023/01/10 08:52:43;;;;;;;3.58;2.17;;;;;;;3.98;76.97;93073.91;2038456;70;20523;-73
2023/01/10 08:55:09;;;;;;;4.20;2.60;;;;;;;4.04;77.34;93074.50;2038401;70;20175;-73
2023/01/10 08:57:35;;;;;;;5.35;2.90;;;;;;;4.14;76.78;93077.44;2038452;70;20186;-70
2023/01/10 09:00:01;;;;;;;5.30;3.00;;;;;;;4.25;76.60;93080.56;2037946;70;20231;-71
2023/01/10 09:02:26;;;;;;;5.03;3.30;;;;;;;4.30;76.23;93074.03;2037668;70;20187;-70
2023/01/10 09:04:52;;;;;;;5.05;2.90;;;;;;;4.31;76.67;93097.13;2038500;70;20150;-71
2023/01/10 09:07:17;;;;;;;4.07;2.83;;;;;;;4.46;76.79;93097.06;2038439;70;20144;-77
2023/01/10 09:09:43;;;;;;;3.42;2.20;;;;;;;4.47;76.26;93095.00;2038428;70;20238;-74
2023/01/10 09:14:53;;;;;;;2.63;1.90;;;;;;;4.52;75.69;93099.66;2038464;70;20241;-73
2023/01/10 09:17:19;;;;;;;3.05;1.98;;;;;;;4.68;75.33;93103.88;2038363;70;20324;-74
2023/01/10 09:19:44;;;;;;;2.88;1.65;;;;;;;4.55;74.76;93113.22;2038441;70;20600;-72
2023/01/10 09:22:10;;;;;;;3.25;1.67;;;;;;;4.48;76.00;93121.59;2038017;70;20148;-77
2023/01/10 09:24:37;;;;;;;2.83;1.85;;;;;;;4.57;75.25;93110.59;2038497;70;20268;-74
2023/01/10 09:27:02;;;;;;;2.47;1.50;;;;;;;4.44;75.26;93115.66;2038535;70;20159;-71
2023/01/10 09:29:28;;;;;;;14.90;7.47;;;;;;;4.50;75.08;93111.38;2038343;70;20667;-75
2023/01/10 09:31:54;;;;;;;11.80;6.75;;;;;;;4.53;75.80;93124.16;2038281;70;20263;-72
2023/01/10 09:34:20;;;;;;;6.65;4.40;;;;;;;4.53;76.06;93126.22;2038371;70;20148;-72
2023/01/10 09:36:46;;;;;;;5.82;3.28;;;;;;;4.59;75.38;93127.53;2038412;70;20194;-73
2023/01/10 09:39:12;;;;;;;8.95;6.00;;;;;;;4.72;75.38;93134.94;2038379;70;20584;-72
2023/01/10 09:42:04;;;;;;;17.80;10.73;;;;;;;4.63;76.00;93137.53;2038363;70;20218;-72
2023/01/10 09:44:36;;;;;;;17.33;9.25;;;;;;;4.55;75.69;93132.72;2038433;70;20140;-72
2023/01/10 09:47:27;;;;;;;13.82;7.05;;;;;;;4.77;75.79;93155.56;2038335;70;20564;-72
2023/01/10 09:50:03;;;;;;;10.20;5.50;;;;;;;4.97;74.98;93160.13;2038402;70;20306;-73
2023/01/10 09:52:33;;;;;;;10.90;6.07;;;;;;;5.03;74.60;93165.50;2038322;70;20604;-70
2023/01/10 09:55:15;;;;;;;10.95;6.35;;;;;;;5.04;75.15;93176.09;2038329;70;20239;-71
2023/01/10 09:57:40;;;;;;;10.57;6.30;;;;;;;4.97;74.34;93182.44;2038324;70;20152;-71
2023/01/10 10:00:14;;;;;;;12.18;6.20;;;;;;;5.02;74.49;93178.72;2038241;70;20167;-72
2023/01/10 10:02:44;;;;;;;14.52;7.55;;;;;;;5.02;74.27;93175.19;2038188;70;20227;-77
2023/01/10 10:05:25;;;;;;;12.48;7.20;;;;;;;5.06;74.85;93193.03;2038306;70;20147;-76
2023/01/10 10:07:56;;;;;;;13.15;6.35;;;;;;;5.14;74.48;93179.06;2037920;70;20604;-73
2023/01/10 10:10:26;;;;;;;8.35;5.20;;;;;;;5.27;74.12;93178.06;2038415;70;20158;-76
2023/01/10 10:13:07;;;;;;;8.43;4.32;;;;;;;5.27;73.96;93178.06;2038577;70;20148;-81
2023/01/10 10:16:04;;;;;;;3.30;1.90;;;;;;;5.28;73.92;93183.09;2039773;70;20147;-80
2023/01/10 10:18:45;;;;;;;6.47;4.13;;;;;;;5.26;73.67;93182.88;2036026;70;20592;-75
2023/01/10 10:21:26;;;;;;;12.30;7.95;;;;;;;4.64;74.61;93184.41;2038175;70;20581;-77
2023/01/10 10:23:59;;;;;;;10.73;6.22;;;;;;;4.93;75.06;93190.44;2038076;70;20150;-80
2023/01/10 10:26:28;;;;;;;4.18;1.95;;;;;;;5.18;73.95;93185.00;2038145;70;20151;-78
2023/01/10 10:29:37;;;;;;;3.08;1.77;;;;;;;5.04;75.16;93184.47;2038169;70;20168;-72
2023/01/10 10:32:18;;;;;;;2.90;1.10;;;;;;;5.21;74.63;93186.63;2037081;70;20164;-71
2023/01/10 10:34:48;;;;;;;1.13;0.85;;;;;;;5.20;74.52;93187.22;2038001;70;20150;-74
2023/01/10 10:37:32;;;;;;;2.00;0.80;;;;;;;5.09;74.11;93197.50;2037951;70;20288;-72
2023/01/10 10:40:06;;;;;;;1.38;1.10;;;;;;;5.05;74.20;93169.22;2037605;70;20202;-75
2023/01/10 10:42:38;;;;;;;2.55;0.70;;;;;;;5.07;73.46;93154.69;2038103;70;20155;-72
2023/01/10 10:45:15;;;;;;;1.85;0.90;;;;;;;5.26;74.06;93141.00;2038269;70;20156;-77
2023/01/10 10:47:48;;;;;;;6.90;4.47;;;;;;;5.01;72.98;93131.84;2038139;70;20607;-77
2023/01/10 10:50:14;;;;;;;7.95;5.25;;;;;;;6.11;72.31;93130.06;2038289;70;20142;-79
2023/01/10 10:52:41;;;;;;;6.28;4.30;;;;;;;7.20;70.32;93128.41;2038315;70;20152;-70
2023/01/10 10:55:14;;;;;;;4.93;2.53;;;;;;;8.12;68.73;93139.06;2038225;70;20201;-71
2023/01/10 10:57:41;;;;;;;2.67;1.90;;;;;;;9.54;66.32;93140.44;2038139;70;20164;-73
2023/01/10 11:00:15;;;;;;;3.17;1.60;;;;;;;9.89;60.65;93156.91;2038048;70;20567;-79
2023/01/10 11:02:48;;;;;;;4.60;2.80;;;;;;;10.03;60.70;93160.00;2038091;70;20142;-76
2023/01/10 11:05:22;;;;;;;3.47;2.15;;;;;;;11.10;56.68;93171.50;2038211;70;20647;-76
2023/01/10 11:07:50;;;;;;;3.33;1.88;;;;;;;8.89;55.81;93192.63;2038258;70;20140;-77
2023/01/10 11:10:34;;;;;;;2.47;2.00;;;;;;;8.21;62.41;93200.06;2038173;70;20581;-77
2023/01/10 11:13:04;;;;;;;4.10;1.98;;;;;;;8.80;56.99;93207.38;2038305;70;20160;-78
2023/01/10 11:15:45;;;;;;;3.25;1.88;;;;;;;10.42;53.22;93214.09;2038250;70;20600;-76
2023/01/10 11:18:15;;;;;;;2.35;1.80;;;;;;;13.05;50.88;93208.44;2038022;70;20148;-77
2023/01/10 11:21:07;;;;;;;1.90;1.02;;;;;;;14.46;43.65;93219.28;2038135;70;20178;-76
2023/01/10 11:23:39;;;;;;;3.08;1.00;;;;;;;15.93;41.16;93215.59;2038231;70;20235;-76
2023/01/10 11:26:08;;;;;;;0.95;0.80;;;;;;;12.17;43.42;93208.75;2038141;70;20155;-76
2023/01/10 11:28:36;;;;;;;2.40;1.10;;;;;;;11.28;45.19;93200.16;2038121;70;20136;-76
2023/01/10 11:31:02;;;;;;;2.70;1.58;;;;;;;9.86;48.71;93209.47;2038112;70;20139;-76
2023/01/10 11:33:38;;;;;;;2.80;1.52;;;;;;;8.38;52.05;93202.84;2038060;70;20231;-76
2023/01/10 11:36:11;;;;;;;2.58;1.15;;;;;;;8.36;51.73;93193.47;2038024;70;20625;-77
2023/01/10 11:38:37;;;;;;;1.30;1.00;;;;;;;7.82;53.33;93190.72;2038161;70;20167;-76
2023/01/10 11:41:03;;;;;;;3.30;2.42;;;;;;;9.45;53.44;93193.84;2038089;70;20155;-76
2023/01/10 11:43:30;;;;;;;2.95;2.40;;;;;;;9.10;54.88;93194.84;2038039;70;20234;-75
2023/01/10 11:46:16;;;;;;;3.00;1.80;;;;;;;9.88;53.42;93189.19;2038033;70;20631;-73
2023/01/10 11:48:47;;;;;;;4.35;2.10;;;;;;;9.54;54.09;93184.66;2038666;70;20136;-75
2023/01/10 11:51:25;;;;;;;2.88;2.05;;;;;;;9.16;53.91;93186.91;2038062;70;20246;-74
2023/01/10 11:54:04;;;;;;;2.38;1.77;;;;;;;9.06;54.96;93186.13;2038700;70;20144;-74
2023/01/10 11:56:35;;;;;;;2.55;1.30;;;;;;;8.71;52.50;93182.84;2038564;70;20231;-75
2023/01/10 11:59:11;;;;;;;2.60;1.55;;;;;;;8.60;52.88;93189.00;2038531;70;20222;-77
2023/01/10 12:01:44;;;;;;;2.20;1.55;;;;;;;7.45;55.25;93184.28;2038521;70;20239;-72
2023/01/10 12:04:14;;;;;;;2.97;2.00;;;;;;;7.55;57.22;93191.44;2039524;70;20211;-76
2023/01/10 12:06:54;;;;;;;2.78;2.05;;;;;;;7.82;57.28;93185.09;2038644;70;20163;-75